sensor_id;sensor_type;location;lat;lon;timestamp;pressure;altitude;pressure_sealevel;temperature;humidity
71107;BME280;58763;47.982;11.516;2024-02-15T00:00:15;94656.13;;;7.28;75.75
71107;BME280;58763;47.982;11.516;2024-02-15T00:02:43;94652.03;;;7.21;76.57
71107;BME280;58763;47.982;11.516;2024-02-15T00:05:13;94653.41;;;7.23;76.81
71107;BME280;58763;47.982;11.516;2024-02-15T00:07:41;94651.22;;;7.20;77.01
71107;BME280;58763;47.982;11.516;2024-02-15T00:10:07;94654.19;;;7.24;76.59
71107;BME280;58763;47.982;11.516;2024-02-15T00:12:34;94656.13;;;7.28;76.34
71107;BME280;58763;47.982;11.516;2024-02-15T00:15:00;94654.53;;;7.27;76.48
71107;BME280;58763;47.982;11.516;2024-02-15T00:17:27;94656.72;;;7.35;75.94
71107;BME280;58763;47.982;11.516;2024-02-15T00:19:55;94648.44;;;7.37;76.52
71107;BME280;58763;47.982;11.516;2024-02-15T00:22:20;94652.94;;;7.31;76.88
71107;BME280;58763;47.982;11.516;2024-02-15T00:24:47;94653.50;;;7.33;76.99
71107;BME280;58763;47.982;11.516;2024-02-15T00:27:17;94654.19;;;7.24;77.55
71107;BME280;58763;47.982;11.516;2024-02-15T00:29:43;94654.81;;;7.31;77.04
71107;BME280;58763;47.982;11.516;2024-02-15T00:32:09;94657.25;;;7.32;76.65
71107;BME280;58763;47.982;11.516;2024-02-15T00:34:38;94659.69;;;7.34;76.81
71107;BME280;58763;47.982;11.516;2024-02-15T00:37:07;94652.13;;;7.31;76.62
71107;BME280;58763;47.982;11.516;2024-02-15T00:39:32;94648.53;;;7.20;77.39
71107;BME280;58763;47.982;11.516;2024-02-15T00:41:58;94653.91;;;7.20;77.26
71107;BME280;58763;47.982;11.516;2024-02-15T00:44:28;94648.03;;;7.23;77.44
71107;BME280;58763;47.982;11.516;2024-02-15T00:46:54;94650.66;;;7.18;77.70
71107;BME280;58763;47.982;11.516;2024-02-15T00:49:21;94641.78;;;7.18;77.70
71107;BME280;58763;47.982;11.516;2024-02-15T00:51:47;94647.09;;;7.13;78.02
71107;BME280;58763;47.982;11.516;2024-02-15T00:54:12;94634.41;;;7.08;77.59
71107;BME280;58763;47.982;11.516;2024-02-15T00:56:38;94635.81;;;6.89;78.85
71107;BME280;58763;47.982;11.516;2024-02-15T00:59:05;94636.56;;;6.84;79.11
71107;BME280;58763;47.982;11.516;2024-02-15T01:01:31;94645.00;;;6.93;78.75
71107;BME280;58763;47.982;11.516;2024-02-15T01:03:56;94634.63;;;7.02;78.67
71107;BME280;58763;47.982;11.516;2024-02-15T01:06:22;94631.66;;;7.03;78.31
71107;BME280;58763;47.982;11.516;2024-02-15T01:08:48;94640.81;;;7.02;78.30
71107;BME280;58763;47.982;11.516;2024-02-15T01:11:14;94643.22;;;7.04;78.20
71107;BME280;58763;47.982;11.516;2024-02-15T01:13:40;94641.72;;;7.13;78.09
71107;BME280;58763;47.982;11.516;2024-02-15T01:16:07;94632.28;;;7.10;77.37
71107;BME280;58763;47.982;11.516;2024-02-15T01:18:32;94639.09;;;7.18;76.58
71107;BME280;58763;47.982;11.516;2024-02-15T01:20:58;94649.53;;;7.14;76.91
71107;BME280;58763;47.982;11.516;2024-02-15T01:23:24;94640.91;;;7.12;77.29
71107;BME280;58763;47.982;11.516;2024-02-15T01:25:51;94650.09;;;7.16;76.90
71107;BME280;58763;47.982;11.516;2024-02-15T01:28:17;94641.97;;;7.11;76.85
71107;BME280;58763;47.982;11.516;2024-02-15T01:30:43;94646.81;;;7.09;77.25
71107;BME280;58763;47.982;11.516;2024-02-15T01:33:09;94645.50;;;7.12;77.18
71107;BME280;58763;47.982;11.516;2024-02-15T01:35:37;94648.19;;;7.17;76.75
71107;BME280;58763;47.982;11.516;2024-02-15T01:38:02;94640.34;;;7.10;76.67
71107;BME280;58763;47.982;11.516;2024-02-15T01:40:28;94643.72;;;7.01;77.24
71107;BME280;58763;47.982;11.516;2024-02-15T01:42:54;94650.75;;;7.02;77.38
71107;BME280;58763;47.982;11.516;2024-02-15T01:45:20;94642.34;;;6.98;76.90
71107;BME280;58763;47.982;11.516;2024-02-15T01:47:48;94641.31;;;6.99;76.63
71107;BME280;58763;47.982;11.516;2024-02-15T01:50:15;94641.31;;;6.99;76.16
71107;BME280;58763;47.982;11.516;2024-02-15T01:52:43;94644.81;;;7.00;76.39
71107;BME280;58763;47.982;11.516;2024-02-15T01:55:15;94638.81;;;6.92;76.49
71107;BME280;58763;47.982;11.516;2024-02-15T01:57:47;94634.19;;;6.88;76.90
71107;BME280;58763;47.982;11.516;2024-02-15T02:00:16;94632.56;;;6.87;76.92
71107;BME280;58763;47.982;11.516;2024-02-15T02:02:44;94630.63;;;6.82;77.63
71107;BME280;58763;47.982;11.516;2024-02-15T02:05:10;94619.94;;;6.87;77.69
71107;BME280;58763;47.982;11.516;2024-02-15T02:07:37;94625.38;;;6.92;77.76
71107;BME280;58763;47.982;11.516;2024-02-15T02:10:03;94620.19;;;6.86;77.70
71107;BME280;58763;47.982;11.516;2024-02-15T02:12:30;94630.38;;;6.84;77.88
71107;BME280;58763;47.982;11.516;2024-02-15T02:14:56;94629.94;;;6.92;77.50
71107;BME280;58763;47.982;11.516;2024-02-15T02:17:22;94632.88;;;6.90;77.05
71107;BME280;58763;47.982;11.516;2024-02-15T02:19:47;94630.28;;;7.01;76.81
71107;BME280;58763;47.982;11.516;2024-02-15T02:22:16;94626.75;;;6.95;77.17
71107;BME280;58763;47.982;11.516;2024-02-15T02:27:34;94618.69;;;6.95;76.80
71107;BME280;58763;47.982;11.516;2024-02-15T02:30:00;94623.13;;;6.84;77.79
71107;BME280;58763;47.982;11.516;2024-02-15T02:32:28;94622.06;;;6.85;78.11
71107;BME280;58763;47.982;11.516;2024-02-15T02:34:56;94610.56;;;6.90;78.17
71107;BME280;58763;47.982;11.516;2024-02-15T02:37:25;94618.84;;;6.88;77.50
71107;BME280;58763;47.982;11.516;2024-02-15T02:39:51;94609.25;;;6.92;77.20
71107;BME280;58763;47.982;11.516;2024-02-15T02:42:17;94615.47;;;6.98;76.79
71107;BME280;58763;47.982;11.516;2024-02-15T02:44:43;94613.03;;;6.96;76.92
71107;BME280;58763;47.982;11.516;2024-02-15T02:47:08;94611.59;;;6.89;77.56
71107;BME280;58763;47.982;11.516;2024-02-15T02:49:37;94611.41;;;6.95;77.38
71107;BME280;58763;47.982;11.516;2024-02-15T02:52:03;94607.94;;;6.95;77.57
71107;BME280;58763;47.982;11.516;2024-02-15T02:54:29;94611.53;;;6.84;77.87
71107;BME280;58763;47.982;11.516;2024-02-15T02:56:55;94611.00;;;6.82;78.08
71107;BME280;58763;47.982;11.516;2024-02-15T02:59:21;94607.69;;;6.75;78.13
71107;BME280;58763;47.982;11.516;2024-02-15T03:01:47;94600.69;;;6.74;78.23
71107;BME280;58763;47.982;11.516;2024-02-15T03:04:16;94606.44;;;6.82;77.52
71107;BME280;58763;47.982;11.516;2024-02-15T03:06:44;94605.06;;;6.80;77.59
71107;BME280;58763;47.982;11.516;2024-02-15T03:09:11;94609.88;;;6.78;76.87
71107;BME280;58763;47.982;11.516;2024-02-15T03:11:40;94604.06;;;6.86;76.66
71107;BME280;58763;47.982;11.516;2024-02-15T03:14:05;94603.44;;;6.79;77.39
71107;BME280;58763;47.982;11.516;2024-02-15T03:16:32;94607.19;;;6.78;76.93
71107;BME280;58763;47.982;11.516;2024-02-15T03:18:58;94610.44;;;6.80;77.23
71107;BME280;58763;47.982;11.516;2024-02-15T03:21:24;94612.28;;;6.74;77.62
71107;BME280;58763;47.982;11.516;2024-02-15T03:23:51;94610.56;;;6.68;77.85
71107;BME280;58763;47.982;11.516;2024-02-15T03:26:28;94607.47;;;6.55;78.22
71107;BME280;58763;47.982;11.516;2024-02-15T03:28:55;94611.38;;;6.47;78.71
71107;BME280;58763;47.982;11.516;2024-02-15T03:31:21;94605.94;;;6.64;78.31
71107;BME280;58763;47.982;11.516;2024-02-15T03:33:48;94600.50;;;6.59;78.54
71107;BME280;58763;47.982;11.516;2024-02-15T03:36:16;94613.72;;;6.60;78.50
71107;BME280;58763;47.982;11.516;2024-02-15T03:38:45;94605.72;;;6.44;78.51
71107;BME280;58763;47.982;11.516;2024-02-15T03:41:12;94610.41;;;6.53;77.51
71107;BME280;58763;47.982;11.516;2024-02-15T03:43:37;94606.41;;;6.56;77.36
71107;BME280;58763;47.982;11.516;2024-02-15T03:46:04;94612.00;;;6.54;77.37
71107;BME280;58763;47.982;11.516;2024-02-15T03:48:30;94609.88;;;6.56;77.47
71107;BME280;58763;47.982;11.516;2024-02-15T03:50:57;94606.28;;;6.46;77.68
71107;BME280;58763;47.982;11.516;2024-02-15T03:53:24;94604.53;;;6.35;78.40
71107;BME280;58763;47.982;11.516;2024-02-15T03:55:49;94605.94;;;6.42;78.40
71107;BME280;58763;47.982;11.516;2024-02-15T03:58:19;94601.13;;;6.44;78.20
71107;BME280;58763;47.982;11.516;2024-02-15T04:00:45;94611.56;;;6.41;78.24
71107;BME280;58763;47.982;11.516;2024-02-15T04:03:10;94613.34;;;6.30;78.74
71107;BME280;58763;47.982;11.516;2024-02-15T04:05:36;94617.44;;;6.38;77.85
71107;BME280;58763;47.982;11.516;2024-02-15T04:08:02;94609.38;;;6.38;77.76
71107;BME280;58763;47.982;11.516;2024-02-15T04:10:28;94610.94;;;6.34;77.07
71107;BME280;58763;47.982;11.516;2024-02-15T04:12:54;94605.56;;;6.34;77.34
71107;BME280;58763;47.982;11.516;2024-02-15T04:15:19;94608.81;;;6.36;77.40
71107;BME280;58763;47.982;11.516;2024-02-15T04:17:46;94605.56;;;6.34;76.95
71107;BME280;58763;47.982;11.516;2024-02-15T04:20:12;94606.59;;;6.28;77.07
71107;BME280;58763;47.982;11.516;2024-02-15T04:22:38;94616.09;;;6.18;77.89
71107;BME280;58763;47.982;11.516;2024-02-15T04:25:05;94619.53;;;6.14;77.51
71107;BME280;58763;47.982;11.516;2024-02-15T04:27:32;94616.84;;;6.14;77.30
71107;BME280;58763;47.982;11.516;2024-02-15T04:29:58;94614.50;;;6.17;77.32
71107;BME280;58763;47.982;11.516;2024-02-15T04:32:24;94616.84;;;6.14;77.27
71107;BME280;58763;47.982;11.516;2024-02-15T04:34:50;94610.41;;;6.15;77.34
71107;BME280;58763;47.982;11.516;2024-02-15T04:37:17;94616.19;;;6.07;77.70
71107;BME280;58763;47.982;11.516;2024-02-15T04:39:43;94613.94;;;6.15;77.22
71107;BME280;58763;47.982;11.516;2024-02-15T04:42:09;94615.97;;;6.08;77.58
71107;BME280;58763;47.982;11.516;2024-02-15T04:44:40;94618.47;;;6.15;77.03
71107;BME280;58763;47.982;11.516;2024-02-15T04:47:05;94618.47;;;6.15;76.97
71107;BME280;58763;47.982;11.516;2024-02-15T04:49:34;94619.59;;;6.19;76.54
71107;BME280;58763;47.982;11.516;2024-02-15T04:52:04;94625.72;;;6.14;76.84
71107;BME280;58763;47.982;11.516;2024-02-15T04:54:30;94614.75;;;6.16;76.96
71107;BME280;58763;47.982;11.516;2024-02-15T04:56:56;94630.69;;;6.22;76.10
71107;BME280;58763;47.982;11.516;2024-02-15T04:59:22;94623.66;;;6.21;75.92
71107;BME280;58763;47.982;11.516;2024-02-15T05:01:52;94620.00;;;6.28;75.42
71107;BME280;58763;47.982;11.516;2024-02-15T05:04:18;94610.66;;;6.30;75.35
71107;BME280;58763;47.982;11.516;2024-02-15T05:06:43;94617.81;;;6.24;75.93
71107;BME280;58763;47.982;11.516;2024-02-15T05:09:10;94613.84;;;6.10;76.42
71107;BME280;58763;47.982;11.516;2024-02-15T05:11:41;94617.53;;;6.04;76.52
71107;BME280;58763;47.982;11.516;2024-02-15T05:14:12;94612.00;;;6.11;76.69
71107;BME280;58763;47.982;11.516;2024-02-15T05:16:38;94608.97;;;6.07;76.34
71107;BME280;58763;47.982;11.516;2024-02-15T05:19:11;94605.72;;;6.05;76.21
71107;BME280;58763;47.982;11.516;2024-02-15T05:21:37;94611.00;;;6.00;76.70
71107;BME280;58763;47.982;11.516;2024-02-15T05:24:04;94613.13;;;5.98;76.55
71107;BME280;58763;47.982;11.516;2024-02-15T05:26:30;94612.09;;;5.99;76.31
71107;BME280;58763;47.982;11.516;2024-02-15T05:28:55;94609.63;;;5.98;76.39
71107;BME280;58763;47.982;11.516;2024-02-15T05:31:21;94607.03;;;6.03;75.98
71107;BME280;58763;47.982;11.516;2024-02-15T05:33:48;94609.22;;;6.06;75.73
71107;BME280;58763;47.982;11.516;2024-02-15T05:36:15;94604.91;;;6.05;75.25
71107;BME280;58763;47.982;11.516;2024-02-15T05:38:41;94603.28;;;6.04;75.00
71107;BME280;58763;47.982;11.516;2024-02-15T05:41:07;94605.81;;;5.94;75.38
71107;BME280;58763;47.982;11.516;2024-02-15T05:43:36;94607.06;;;5.86;75.93
71107;BME280;58763;47.982;11.516;2024-02-15T05:46:03;94611.00;;;6.00;75.17
71107;BME280;58763;47.982;11.516;2024-02-15T05:48:28;94617.31;;;5.89;75.81
71107;BME280;58763;47.982;11.516;2024-02-15T05:50:57;94605.81;;;5.77;75.99
71107;BME280;58763;47.982;11.516;2024-02-15T05:53:24;94606.63;;;5.61;76.87
71107;BME280;58763;47.982;11.516;2024-02-15T05:55:50;94609.31;;;5.61;76.96
71107;BME280;58763;47.982;11.516;2024-02-15T05:58:16;94610.78;;;5.52;77.27
71107;BME280;58763;47.982;11.516;2024-02-15T06:00:43;94600.69;;;5.42;77.63
71107;BME280;58763;47.982;11.516;2024-02-15T06:03:12;94605.75;;;5.39;77.92
71107;BME280;58763;47.982;11.516;2024-02-15T06:05:38;94607.38;;;5.40;77.52
71107;BME280;58763;47.982;11.516;2024-02-15T06:08:04;94606.81;;;5.38;78.12
71107;BME280;58763;47.982;11.516;2024-02-15T06:10:30;94603.06;;;5.39;78.53
71107;BME280;58763;47.982;11.516;2024-02-15T06:12:56;94603.38;;;5.42;78.03
71107;BME280;58763;47.982;11.516;2024-02-15T06:15:23;94609.06;;;5.29;78.14
71107;BME280;58763;47.982;11.516;2024-02-15T06:17:49;94614.94;;;5.43;78.24
71107;BME280;58763;47.982;11.516;2024-02-15T06:20:15;94618.19;;;5.45;78.16
71107;BME280;58763;47.982;11.516;2024-02-15T06:22:43;94604.50;;;5.46;77.71
71107;BME280;58763;47.982;11.516;2024-02-15T06:25:10;94611.19;;;5.44;77.72
71107;BME280;58763;47.982;11.516;2024-02-15T06:27:37;94609.06;;;5.29;78.32
71107;BME280;58763;47.982;11.516;2024-02-15T06:30:07;94607.19;;;5.30;78.38
71107;BME280;58763;47.982;11.516;2024-02-15T06:32:52;94614.44;;;5.29;78.22
71107;BME280;58763;47.982;11.516;2024-02-15T06:35:37;94619.94;;;5.23;78.31
71107;BME280;58763;47.982;11.516;2024-02-15T06:38:21;94614.66;;;5.28;78.59
71107;BME280;58763;47.982;11.516;2024-02-15T06:41:05;94622.13;;;5.26;78.95
71107;BME280;58763;47.982;11.516;2024-02-15T06:43:31;94628.25;;;5.38;78.54
71107;BME280;58763;47.982;11.516;2024-02-15T06:45:58;94626.47;;;5.27;78.51
71107;BME280;58763;47.982;11.516;2024-02-15T06:48:24;94635.88;;;5.29;78.64
71107;BME280;58763;47.982;11.516;2024-02-15T06:50:51;94627.44;;;5.37;78.31
71107;BME280;58763;47.982;11.516;2024-02-15T06:53:19;94630.03;;;5.49;77.57
71107;BME280;58763;47.982;11.516;2024-02-15T06:55:46;94629.28;;;5.37;78.23
71107;BME280;58763;47.982;11.516;2024-02-15T06:58:17;94627.78;;;5.41;78.13
71107;BME280;58763;47.982;11.516;2024-02-15T07:00:43;94628.72;;;5.35;78.03
71107;BME280;58763;47.982;11.516;2024-02-15T07:03:10;94633.34;;;5.39;78.22
71107;BME280;58763;47.982;11.516;2024-02-15T07:05:37;94628.91;;;5.45;77.82
71107;BME280;58763;47.982;11.516;2024-02-15T07:08:07;94635.56;;;5.42;77.96
71107;BME280;58763;47.982;11.516;2024-02-15T07:10:38;94636.88;;;5.40;78.21
71107;BME280;58763;47.982;11.516;2024-02-15T07:13:04;94637.78;;;5.45;78.23
71107;BME280;58763;47.982;11.516;2024-02-15T07:15:35;94630.47;;;5.41;78.15
71107;BME280;58763;47.982;11.516;2024-02-15T07:18:04;94630.19;;;5.42;78.84
71107;BME280;58763;47.982;11.516;2024-02-15T07:20:32;94632.06;;;5.42;78.36
71107;BME280;58763;47.982;11.516;2024-02-15T07:22:58;94631.41;;;5.35;79.03
71107;BME280;58763;47.982;11.516;2024-02-15T07:25:23;94631.31;;;5.30;79.68
71107;BME280;58763;47.982;11.516;2024-02-15T07:27:49;94631.66;;;5.33;79.67
71107;BME280;58763;47.982;11.516;2024-02-15T07:30:15;94638.41;;;5.36;79.98
71107;BME280;58763;47.982;11.516;2024-02-15T07:32:41;94631.25;;;5.58;79.50
71107;BME280;58763;47.982;11.516;2024-02-15T07:35:07;94630.38;;;5.52;79.54
71107;BME280;58763;47.982;11.516;2024-02-15T07:37:33;94626.22;;;5.45;80.57
71107;BME280;58763;47.982;11.516;2024-02-15T07:39:59;94621.03;;;5.55;80.74
71107;BME280;58763;47.982;11.516;2024-02-15T07:42:25;94624.69;;;5.66;80.78
71107;BME280;58763;47.982;11.516;2024-02-15T07:44:53;94633.13;;;5.74;80.23
71107;BME280;58763;47.982;11.516;2024-02-15T07:47:19;94623.22;;;5.75;80.36
71107;BME280;58763;47.982;11.516;2024-02-15T07:49:49;94614.13;;;5.92;80.08
71107;BME280;58763;47.982;11.516;2024-02-15T07:52:14;94622.94;;;6.09;80.02
71107;BME280;58763;47.982;11.516;2024-02-15T07:54:40;94618.78;;;6.18;80.19
71107;BME280;58763;47.982;11.516;2024-02-15T07:57:06;94613.81;;;6.27;79.58
71107;BME280;58763;47.982;11.516;2024-02-15T07:59:32;94615.13;;;6.24;79.78
71107;BME280;58763;47.982;11.516;2024-02-15T08:01:57;94600.94;;;6.29;79.78
71107;BME280;58763;47.982;11.516;2024-02-15T08:04:23;94604.44;;;6.30;80.16
71107;BME280;58763;47.982;11.516;2024-02-15T08:06:50;94608.63;;;6.42;79.57
71107;BME280;58763;47.982;11.516;2024-02-15T08:09:21;94610.63;;;6.52;79.19
71107;BME280;58763;47.982;11.516;2024-02-15T08:11:50;94612.00;;;6.54;79.27
71107;BME280;58763;47.982;11.516;2024-02-15T08:14:16;94611.38;;;6.69;79.83
71107;BME280;58763;47.982;11.516;2024-02-15T08:16:44;94615.25;;;6.78;79.43
71107;BME280;58763;47.982;11.516;2024-02-15T08:19:10;94597.69;;;6.92;78.10
71107;BME280;58763;47.982;11.516;2024-02-15T08:21:37;94595.88;;;6.97;78.04
71107;BME280;58763;47.982;11.516;2024-02-15T08:24:03;94587.31;;;7.06;77.95
71107;BME280;58763;47.982;11.516;2024-02-15T08:26:39;94579.31;;;7.11;77.63
71107;BME280;58763;47.982;11.516;2024-02-15T08:29:05;94577.56;;;7.26;76.92
71107;BME280;58763;47.982;11.516;2024-02-15T08:31:32;94586.50;;;7.32;76.69
71107;BME280;58763;47.982;11.516;2024-02-15T08:33:59;94579.31;;;7.37;76.01
71107;BME280;58763;47.982;11.516;2024-02-15T08:36:26;94578.53;;;7.42;75.81
71107;BME280;58763;47.982;11.516;2024-02-15T08:38:51;94575.13;;;7.56;75.01
71107;BME280;58763;47.982;11.516;2024-02-15T08:41:17;94572.75;;;7.60;74.89
71107;BME280;58763;47.982;11.516;2024-02-15T08:43:44;94567.19;;;7.72;74.88
71107;BME280;58763;47.982;11.516;2024-02-15T08:46:11;94568.91;;;7.88;73.26
71107;BME280;58763;47.982;11.516;2024-02-15T08:48:38;94569.81;;;8.03;74.37
71107;BME280;58763;47.982;11.516;2024-02-15T08:51:04;94565.34;;;8.24;74.24
71107;BME280;58763;47.982;11.516;2024-02-15T08:53:31;94577.44;;;8.63;74.72
71107;BME280;58763;47.982;11.516;2024-02-15T08:55:57;94568.88;;;8.91;71.47
71107;BME280;58763;47.982;11.516;2024-02-15T08:58:23;94567.34;;;9.21;69.38
71107;BME280;58763;47.982;11.516;2024-02-15T09:00:48;94565.22;;;9.48;69.34
71107;BME280;58763;47.982;11.516;2024-02-15T09:03:14;94561.97;;;9.71;67.79
71107;BME280;58763;47.982;11.516;2024-02-15T09:05:40;94558.16;;;10.07;66.78
71107;BME280;58763;47.982;11.516;2024-02-15T09:08:06;94563.84;;;10.26;66.73
71107;BME280;58763;47.982;11.516;2024-02-15T09:10:32;94565.66;;;10.51;65.97
71107;BME280;58763;47.982;11.516;2024-02-15T09:12:58;94568.00;;;10.72;63.11
71107;BME280;58763;47.982;11.516;2024-02-15T09:15:23;94574.34;;;11.06;63.91
71107;BME280;58763;47.982;11.516;2024-02-15T09:17:50;94570.16;;;11.29;64.23
71107;BME280;58763;47.982;11.516;2024-02-15T09:20:17;94571.16;;;11.43;63.28
71107;BME280;58763;47.982;11.516;2024-02-15T09:22:50;94562.63;;;11.60;61.88
71107;BME280;58763;47.982;11.516;2024-02-15T09:25:18;94556.16;;;11.95;61.87
71107;BME280;58763;47.982;11.516;2024-02-15T09:27:44;94553.06;;;12.06;61.32
71107;BME280;58763;47.982;11.516;2024-02-15T09:30:14;94559.16;;;12.22;60.72
71107;BME280;58763;47.982;11.516;2024-02-15T09:32:41;94552.25;;;12.34;59.54
71107;BME280;58763;47.982;11.516;2024-02-15T09:35:09;94546.69;;;12.44;58.83
71107;BME280;58763;47.982;11.516;2024-02-15T09:37:38;94543.00;;;12.59;59.80
71107;BME280;58763;47.982;11.516;2024-02-15T09:40:13;94549.31;;;12.78;59.11
71107;BME280;58763;47.982;11.516;2024-02-15T09:42:41;94537.50;;;12.88;58.83
71107;BME280;58763;47.982;11.516;2024-02-15T09:45:07;94536.84;;;12.96;57.99
71107;BME280;58763;47.982;11.516;2024-02-15T09:47:37;94528.19;;;13.18;57.74
71107;BME280;58763;47.982;11.516;2024-02-15T09:50:13;94528.69;;;13.38;58.13
71107;BME280;58763;47.982;11.516;2024-02-15T09:52:40;94525.97;;;13.57;56.62
71107;BME280;58763;47.982;11.516;2024-02-15T09:55:09;94521.38;;;13.71;56.87
71107;BME280;58763;47.982;11.516;2024-02-15T09:57:47;94520.50;;;13.75;57.92
71107;BME280;58763;47.982;11.516;2024-02-15T10:00:14;94514.41;;;13.83;57.97
71107;BME280;58763;47.982;11.516;2024-02-15T10:02:44;94509.06;;;13.92;56.67
71107;BME280;58763;47.982;11.516;2024-02-15T10:05:10;94510.00;;;14.01;56.33
71107;BME280;58763;47.982;11.516;2024-02-15T10:07:40;94507.63;;;14.13;57.62
71107;BME280;58763;47.982;11.516;2024-02-15T10:10:22;94502.91;;;14.19;56.78
71107;BME280;58763;47.982;11.516;2024-02-15T10:12:49;94507.03;;;14.16;56.84
71107;BME280;58763;47.982;11.516;2024-02-15T10:18:00;94498.00;;;14.34;57.67
71107;BME280;58763;47.982;11.516;2024-02-15T10:20:27;94511.31;;;14.49;57.72
71107;BME280;58763;47.982;11.516;2024-02-15T10:23:10;94504.28;;;14.48;56.37
71107;BME280;58763;47.982;11.516;2024-02-15T10:25:39;94500.13;;;14.51;56.12
71107;BME280;58763;47.982;11.516;2024-02-15T10:28:10;94500.81;;;14.57;55.90
71107;BME280;58763;47.982;11.516;2024-02-15T10:30:45;94498.41;;;14.55;56.97
71107;BME280;58763;47.982;11.516;2024-02-15T10:33:25;94491.66;;;14.80;55.94
71107;BME280;58763;47.982;11.516;2024-02-15T10:36:05;94488.13;;;14.66;55.00
71107;BME280;58763;47.982;11.516;2024-02-15T10:38:32;94497.09;;;14.66;54.90
71107;BME280;58763;47.982;11.516;2024-02-15T10:41:07;94487.53;;;14.69;55.47
71107;BME280;58763;47.982;11.516;2024-02-15T10:43:34;94476.22;;;14.75;56.41
71107;BME280;58763;47.982;11.516;2024-02-15T10:46:03;94479.75;;;14.76;55.45
71107;BME280;58763;47.982;11.516;2024-02-15T10:48:29;94467.34;;;14.83;55.40
71107;BME280;58763;47.982;11.516;2024-02-15T10:50:59;94467.25;;;14.88;54.99
71107;BME280;58763;47.982;11.516;2024-02-15T10:53:30;94462.09;;;14.87;54.32
71107;BME280;58763;47.982;11.516;2024-02-15T10:58:43;94449.25;;;15.14;54.17
71107;BME280;58763;47.982;11.516;2024-02-15T11:01:12;94447.19;;;15.20;53.77
71107;BME280;58763;47.982;11.516;2024-02-15T11:03:51;94452.34;;;15.21;54.22
71107;BME280;58763;47.982;11.516;2024-02-15T11:06:24;94440.09;;;15.33;53.97
71107;BME280;58763;47.982;11.516;2024-02-15T11:08:52;94428.94;;;15.43;53.42
71107;BME280;58763;47.982;11.516;2024-02-15T11:11:18;94428.25;;;15.51;52.93
71107;BME280;58763;47.982;11.516;2024-02-15T11:13:46;94428.06;;;15.34;53.80
71107;BME280;58763;47.982;11.516;2024-02-15T11:16:41;94417.38;;;15.37;53.65
71107;BME280;58763;47.982;11.516;2024-02-15T11:19:08;94413.47;;;15.30;53.89
71107;BME280;58763;47.982;11.516;2024-02-15T11:21:55;94411.09;;;15.37;53.97
71107;BME280;58763;47.982;11.516;2024-02-15T11:24:32;94401.44;;;15.44;53.57
71107;BME280;58763;47.982;11.516;2024-02-15T11:27:02;94402.16;;;15.58;53.79
71107;BME280;58763;47.982;11.516;2024-02-15T11:29:56;94401.75;;;15.73;53.06
71107;BME280;58763;47.982;11.516;2024-02-15T11:32:43;94387.03;;;15.74;52.90
71107;BME280;58763;47.982;11.516;2024-02-15T11:35:13;94384.47;;;15.78;52.06
71107;BME280;58763;47.982;11.516;2024-02-15T11:43:09;94379.44;;;15.94;51.55
71107;BME280;58763;47.982;11.516;2024-02-15T11:45:36;94385.88;;;16.06;51.81
71107;BME280;58763;47.982;11.516;2024-02-15T11:48:10;94375.03;;;16.15;51.50
71107;BME280;58763;47.982;11.516;2024-02-15T11:50:37;94372.56;;;16.05;50.91
71107;BME280;58763;47.982;11.516;2024-02-15T11:53:07;94364.72;;;16.03;50.87
71107;BME280;58763;47.982;11.516;2024-02-15T11:55:37;94358.94;;;16.05;50.11
71107;BME280;58763;47.982;11.516;2024-02-15T11:58:04;94360.59;;;15.83;50.55
71107;BME280;58763;47.982;11.516;2024-02-15T12:00:31;94360.13;;;15.81;51.09
71107;BME280;58763;47.982;11.516;2024-02-15T12:03:17;94354.53;;;15.86;50.69
71107;BME280;58763;47.982;11.516;2024-02-15T12:06:02;94348.06;;;15.82;50.79
71107;BME280;58763;47.982;11.516;2024-02-15T12:08:49;94343.75;;;15.81;50.83
71107;BME280;58763;47.982;11.516;2024-02-15T12:11:34;94343.50;;;15.92;49.89
71107;BME280;58763;47.982;11.516;2024-02-15T12:14:19;94343.31;;;15.97;49.81
71107;BME280;58763;47.982;11.516;2024-02-15T12:17:07;94347.69;;;16.06;49.94
71107;BME280;58763;47.982;11.516;2024-02-15T12:19:54;94335.69;;;16.07;50.16
71107;BME280;58763;47.982;11.516;2024-02-15T12:22:25;94336.16;;;16.09;49.57
71107;BME280;58763;47.982;11.516;2024-02-15T12:24:59;94327.72;;;16.28;49.08
71107;BME280;58763;47.982;11.516;2024-02-15T12:27:38;94329.50;;;16.32;48.78
71107;BME280;58763;47.982;11.516;2024-02-15T12:30:04;94324.34;;;16.31;48.35
71107;BME280;58763;47.982;11.516;2024-02-15T12:32:32;94322.94;;;16.42;48.11
71107;BME280;58763;47.982;11.516;2024-02-15T12:35:12;94316.66;;;16.41;47.91
71107;BME280;58763;47.982;11.516;2024-02-15T12:38:08;94317.97;;;16.44;48.92
71107;BME280;58763;47.982;11.516;2024-02-15T12:40:39;94314.13;;;16.45;48.62
71107;BME280;58763;47.982;11.516;2024-02-15T12:43:06;94319.41;;;16.50;47.88
71107;BME280;58763;47.982;11.516;2024-02-15T12:45:39;94311.06;;;16.38;46.80
71107;BME280;58763;47.982;11.516;2024-02-15T12:48:06;94303.16;;;16.28;48.15
71107;BME280;58763;47.982;11.516;2024-02-15T12:50:33;94309.56;;;16.32;48.15
71107;BME280;58763;47.982;11.516;2024-02-15T12:52:59;94305.13;;;16.44;48.04
71107;BME280;58763;47.982;11.516;2024-02-15T12:55:32;94304.84;;;16.54;47.80
71107;BME280;58763;47.982;11.516;2024-02-15T12:58:03;94303.34;;;16.40;48.78
71107;BME280;58763;47.982;11.516;2024-02-15T13:00:30;94294.97;;;16.28;49.66
71107;BME280;58763;47.982;11.516;2024-02-15T13:03:01;94292.41;;;16.31;49.26
71107;BME280;58763;47.982;11.516;2024-02-15T13:05:29;94285.34;;;16.22;49.11
71107;BME280;58763;47.982;11.516;2024-02-15T13:07:57;94286.91;;;16.14;49.10
71107;BME280;58763;47.982;11.516;2024-02-15T13:10:30;94286.44;;;16.12;49.83
71107;BME280;58763;47.982;11.516;2024-02-15T13:12:58;94281.28;;;16.11;48.67
71107;BME280;58763;47.982;11.516;2024-02-15T13:15:24;94275.34;;;16.09;48.55
71107;BME280;58763;47.982;11.516;2024-02-15T13:17:59;94278.19;;;15.95;48.86